• Join FlightAware (Why Join?)
  • Login
  • US Flag 
12:36PM EDT


 

Airport Tracker/Info


-or-


 

Live Flight TrackerFlight Track Log ✈ SWA864 ✈ 11-May-2013 ✈ KMCO - KSTL

Flight Track Log - Related Links

Times and Time Zones

All times are in EDT time to prevent confusion due to time zone crossing. See the SWA864 flight status page for this flight to view local times or setup timezone preferences in your user account.

Time Position Orientation Groundspeed Altitude Reporting Facility
EDT Latitude Longitude Course Direction KTS MPH feet Rate Location/Type
07:34PM 28.4167 -81.3000 180° South 163 188 800  Level Orlando TRACON
07:35PM 28.4000 -81.3000 180° South 163 188 1,400 2,760 Climbing Orlando TRACON
07:36PM 28.3333 -81.3333 204° Southwest 202 232 5,000 2,940 Climbing Orlando TRACON
07:37PM 28.3500 -81.4000 286° West 256 295 7,600 3,000 Climbing Orlando TRACON
07:38PM 28.3667 -81.5000 281° West 299 344 11,100 3,060 Climbing Orlando TRACON
07:40PM 28.4086 -81.6300 290° West 354 407 15,800 3,180 Climbing Jacksonville Center
07:41PM 28.4475 -81.7569 289° West 360 414 19,200 3,300 Climbing Jacksonville Center
07:42PM 28.4778 -81.8675 287° West 360 414 22,500 2,400 Climbing Jacksonville Center
07:43PM 28.5097 -81.9761 289° West 360 414 24,000 1,800 Climbing Jacksonville Center
07:44PM 28.5419 -82.0914 288° West 365 420 26,100 2,100 Climbing Jacksonville Center
07:45PM 28.5717 -82.2142 285° West 389 448 28,200 1,860 Climbing Jacksonville Center
07:46PM 28.6058 -82.3464 286° West 410 472 29,900 900 Climbing Jacksonville Center
07:47PM 28.6397 -82.4786 286° West 424 488 30,000 780 Climbing Jacksonville Center
07:48PM 28.7214 -82.5800 313° West 424 488 31,500 2,400 Climbing Jacksonville Center
07:49PM 28.8258 -82.6581 327° Northwest 429 494 34,800 3,300 Climbing Jacksonville Center
07:50PM 28.9178 -82.7267 327° Northwest 423 487 38,200 2,580 Climbing Jacksonville Center
07:51PM 29.0078 -82.7881 329° Northwest 399 459 40,000 900 Climbing Jacksonville Center
07:52PM 29.0953 -82.8544 326° Northwest 381 438 40,000  Level Jacksonville Center
07:53PM 29.1808 -82.9186 327° Northwest 381 438 40,000  Level Jacksonville Center
07:54PM 29.2706 -82.9831 328° Northwest 376 433 40,000  Level Jacksonville Center
07:55PM 29.3583 -83.0497 327° Northwest 376 433 40,000  Level Jacksonville Center
07:56PM 29.4500 -83.1167 328° Northwest 376 433 40,000  Level Jacksonville Center
07:57PM 29.5356 -83.1792 328° Northwest 387 445 40,000  Level Jacksonville Center
07:58PM 29.6231 -83.2461 326° Northwest 392 451 40,000  Level Jacksonville Center
07:59PM 29.7106 -83.3158 325° Northwest 387 445 40,000  Level Jacksonville Center
08:00PM 29.8000 -83.3808 328° Northwest 382 440 40,000  Level Jacksonville Center
08:01PM 29.8894 -83.4458 328° Northwest 382 440 40,000 -60 Level Jacksonville Center
08:02PM 29.9769 -83.5111 327° Northwest 382 440 39,900  Descending Jacksonville Center
08:03PM 30.0664 -83.5789 327° Northwest 382 440 40,000  Climbing Jacksonville Center
08:04PM 30.1536 -83.6444 327° Northwest 382 440 40,000  Level Jacksonville Center
08:05PM 30.2450 -83.7125 327° Northwest 382 440 40,000  Level Jacksonville Center
08:06PM 30.3322 -83.7806 326° Northwest 382 440 40,000  Level Jacksonville Center
08:07PM 30.4217 -83.8467 327° Northwest 382 440 40,000  Level Jacksonville Center
08:08PM 30.5108 -83.9172 326° Northwest 382 440 40,000  Level Jacksonville Center
08:09PM 30.6022 -83.9883 326° Northwest 376 433 40,000  Level Jacksonville Center
08:10PM 30.6933 -84.0569 327° Northwest 376 433 40,000  Level Jacksonville Center
08:11PM 30.7825 -84.1283 325° Northwest 376 433 40,000  Level Jacksonville Center
08:12PM 30.8694 -84.1972 326° Northwest 382 440 40,000  Level Jacksonville Center
08:13PM 30.9564 -84.2636 327° Northwest 382 440 40,000  Level Jacksonville Center
08:14PM 31.0433 -84.3306 327° Northwest 382 440 40,000  Level Jacksonville Center
08:15PM 31.1303 -84.3972 327° Northwest 382 440 40,000  Level Jacksonville Center
08:16PM 31.2194 -84.4667 326° Northwest 382 440 40,000  Level Jacksonville Center
08:17PM 31.3803 -84.5933 326° Northwest 386 444 40,000  Level Atlanta Center
08:18PM 31.4675 -84.6622 326° Northwest 386 444 40,000  Level Atlanta Center
08:19PM 31.5528 -84.7286 326° Northwest 381 438 40,000  Level Atlanta Center
08:20PM 31.6419 -84.8000 326° Northwest 381 438 40,000  Level Atlanta Center
08:21PM 31.7356 -84.8739 326° Northwest 376 433 40,000  Level Atlanta Center
08:22PM 31.8247 -84.9433 327° Northwest 376 433 40,000  Level Atlanta Center
08:23PM 31.9119 -85.0125 326° Northwest 376 433 40,000  Level Atlanta Center
08:24PM 31.9989 -85.0822 326° Northwest 376 433 40,000  Level Atlanta Center
08:25PM 32.0839 -85.1444 328° Northwest 376 433 40,000  Level Atlanta Center
08:26PM 32.1731 -85.2142 327° Northwest 376 433 40,000  Level Atlanta Center
08:27PM 32.2581 -85.2842 325° Northwest 376 433 40,000  Level Atlanta Center
08:28PM 32.3469 -85.3542 326° Northwest 376 433 40,000  Level Atlanta Center
08:29PM 32.4319 -85.4219 326° Northwest 376 433 40,000  Level Atlanta Center
08:30PM 32.5208 -85.4947 325° Northwest 376 433 40,000  Level Atlanta Center
08:31PM 32.6056 -85.5603 327° Northwest 376 433 40,000  Level Atlanta Center
08:32PM 32.6922 -85.6333 325° Northwest 376 433 40,000  Level Atlanta Center
08:33PM 32.7789 -85.7064 325° Northwest 376 433 40,000  Level Atlanta Center
08:34PM 32.8678 -85.7750 327° Northwest 376 433 40,000  Level Atlanta Center
08:35PM 32.9544 -85.8461 325° Northwest 376 433 40,000  Level Atlanta Center
08:36PM 33.0431 -85.9197 325° Northwest 382 440 40,000  Level Atlanta Center
08:37PM 33.1317 -85.9911 326° Northwest 382 440 40,000  Level Atlanta Center
08:38PM 33.2142 -86.0575 326° Northwest 382 440 40,000  Level Atlanta Center
08:39PM 33.3028 -86.1192 330° Northwest 382 440 40,000  Level Atlanta Center
08:40PM 33.3933 -86.2058 321° Northwest 389 448 40,000  Level Atlanta Center
08:41PM 33.4817 -86.2778 326° Northwest 394 453 40,000  Level Atlanta Center
08:42PM 33.5742 -86.3600 323° Northwest 383 441 40,000  Level Atlanta Center
08:43PM 33.6625 -86.4322 326° Northwest 378 435 40,000  Level Atlanta Center
08:44PM 33.7508 -86.5047 326° Northwest 378 435 40,000  Level Atlanta Center
08:45PM 33.8392 -86.5772 326° Northwest 378 435 40,000  Level Atlanta Center
08:46PM 33.9253 -86.6525 324° Northwest 378 435 40,000  Level Atlanta Center
08:47PM 34.0114 -86.7253 325° Northwest 378 435 40,000  Level Atlanta Center
08:48PM 34.0994 -86.7983 326° Northwest 378 435 40,000  Level Atlanta Center
08:50PM 34.2033 -86.8864 325° Northwest 398 458 40,000  Level Memphis Center
08:51PM 34.2803 -86.9536 324° Northwest 393 452 40,000  Level Memphis Center
08:52PM 34.3700 -87.0306 325° Northwest 388 447 40,000  Level Memphis Center
08:53PM 34.4575 -87.1028 326° Northwest 388 447 40,000  Level Memphis Center
08:54PM 34.5453 -87.1825 323° Northwest 388 447 40,000  Level Memphis Center
08:55PM 34.6325 -87.2550 326° Northwest 388 447 40,000  Level Memphis Center
08:56PM 34.7222 -87.3328 325° Northwest 388 447 40,000  Level Memphis Center
08:57PM 34.8161 -87.4178 323° Northwest 388 447 40,000  Level Memphis Center
08:58PM 34.9053 -87.4933 325° Northwest 388 447 40,000  Level Memphis Center
08:59PM 34.9925 -87.5664 326° Northwest 388 447 40,000  Level Memphis Center
09:00PM 35.0842 -87.6494 323° Northwest 393 452 40,000  Level Memphis Center
09:01PM 35.1756 -87.7253 326° Northwest 393 452 40,000  Level Memphis Center
09:02PM 35.2667 -87.8039 325° Northwest 398 458 40,000  Level Memphis Center
09:03PM 35.3581 -87.8825 325° Northwest 398 458 40,000  Level Memphis Center
09:04PM 35.4472 -87.9639 323° Northwest 398 458 40,000  Level Memphis Center
09:05PM 35.5258 -88.0331 324° Northwest 391 450 40,000  Level Memphis Center
09:06PM 35.6150 -88.1147 323° Northwest 396 456 40,000  Level Memphis Center
09:07PM 35.7081 -88.1889 327° Northwest 396 456 40,000  Level Memphis Center
09:08PM 35.7969 -88.2661 325° Northwest 396 456 40,000  Level Memphis Center
09:09PM 35.8858 -88.3483 323° Northwest 396 456 40,000  Level Memphis Center
09:10PM 35.9767 -88.4306 324° Northwest 396 456 40,000  Level Memphis Center
09:11PM 36.0697 -88.5106 325° Northwest 396 456 40,000  Level Memphis Center
09:12PM 36.1606 -88.5933 324° Northwest 401 461 40,000  Level Memphis Center
09:13PM 36.2536 -88.6764 324° Northwest 401 461 40,000  Level Memphis Center
09:14PM 36.3442 -88.7594 324° Northwest 401 461 40,000  Level Memphis Center
09:15PM 36.4350 -88.8403 324° Northwest 401 461 40,000  Level Memphis Center
09:16PM 36.5275 -88.9264 323° Northwest 406 467 40,000  Level Memphis Center
09:17PM 36.6203 -89.0075 325° Northwest 406 467 40,000  Level Memphis Center
09:18PM 36.7128 -89.0939 323° Northwest 411 473 40,000 -480 Level Memphis Center
09:19PM 36.8011 -89.1781 323° Northwest 411 473 39,100 -1,560 Descending Memphis Center
09:20PM 36.8894 -89.2622 323° Northwest 411 473 36,900 -2,700 Descending Memphis Center
09:21PM 36.9797 -89.3467 323° Northwest 411 473 33,800 -3,060 Descending Memphis Center
09:23PM 37.2106 -89.5567 324° Northwest 398 458 26,400 -2,280 Descending Kansas City Center
09:24PM 37.3056 -89.6167 333° Northwest 391 450 26,000 -240 Descending Kansas City Center
09:25PM 37.4033 -89.6686 337° Northwest 384 442 26,000  Level Kansas City Center
09:26PM 37.5017 -89.7222 337° Northwest 385 443 26,000  Level Kansas City Center
09:27PM 37.5958 -89.7750 336° Northwest 387 445 26,000 -1,080 Level Kansas City Center
09:28PM 37.6942 -89.8272 337° Northwest 386 444 23,900 -2,220 Descending Kansas City Center
09:29PM 37.7869 -89.8794 336° Northwest 373 429 21,500 -2,580 Descending Kansas City Center
09:30PM 37.8939 -89.9383 337° Northwest 354 407 18,700 -2,520 Descending Kansas City Center
09:31PM 37.9797 -89.9842 337° Northwest 339 390 16,400 -2,340 Descending Kansas City Center
09:32PM 38.0619 -90.0319 335° Northwest 326 375 14,100 -2,280 Descending Kansas City Center
09:33PM 38.1425 -90.0714 339° North 314 361 11,900 -1,860 Descending Kansas City Center
09:34PM 38.2275 -90.0800 355° North 307 353 10,400 -1,200 Descending Kansas City Center
09:35PM 38.3044 -90.0883 355° North 287 330 9,500 -1,140 Descending Kansas City Center
09:36PM 38.3736 -90.0958 355° North 260 299 8,200 -1,020 Descending Kansas City Center
09:37PM 38.4364 -90.1017 356° North 244 281 7,500 -1,560 Descending Kansas City Center
09:38PM 38.5053 -90.1206 348° North 242 278 5,100 -1,980 Descending Kansas City Center
09:39PM 38.5706 -90.1397 347° North 243 280 3,600 -840 Descending Kansas City Center
09:40PM 38.6225 -90.1794 329° Northwest 228 262 3,500 -300 Descending Kansas City Center
09:41PM 38.6658 -90.2111 330° Northwest 203 234 3,000 -600 Descending Kansas City Center
09:42PM 38.6931 -90.2475 314° West 174 200 2,300 -720 Descending Kansas City Center
09:43PM 38.7133 -90.2889 302° West 152 175 1,600 -780 Descending Kansas City Center
09:44PM 38.7350 -90.3311 303° West 131 151 800 -480 Descending Kansas City Center
09:45PM 38.7533 -90.3689 302° West 130 150 700 -120 Descending Kansas City Center
09:47PM 38.7487 -90.3700 90° East  Level Estimated